Time;durP1;ratioP1;P1;durP2;ratioP2;P2;SDS_P1;SDS_P2;PMS_P1;PMS_P2;Temp;Humidity;BMP_temperature;BMP_pressure;BME280_temperature;BME280_humidity;BME280_pressure;Samples;Min_cycle;Max_cycle;Signal;HPM_P1;HPM_P2
2022/10/25 00:01:15;;;;;;;4.93;3.93;;;16.60;99.90;;;;;;5027743;28;20497;-80
2022/10/25 00:03:41;;;;;;;5.00;4.17;;;16.70;99.90;;;;;;4994767;28;20160;-81
2022/10/25 00:06:09;;;;;;;9.33;3.90;;;16.70;99.90;;;;;;4995257;28;20466;-80
2022/10/25 00:08:35;;;;;;;4.00;3.70;;;16.70;99.90;;;;;;4994067;28;20179;-81
2022/10/25 00:11:01;;;;;;;9.90;3.80;;;16.70;99.90;;;;;;5015487;28;20430;-81
2022/10/25 00:13:26;;;;;;;4.10;3.80;;;16.70;99.90;;;;;;5029323;28;20417;-81
2022/10/25 00:15:52;;;;;;;4.40;3.50;;;16.60;99.90;;;;;;5034470;28;20216;-81
2022/10/25 00:18:18;;;;;;;5.00;3.77;;;16.70;99.90;;;;;;5033488;28;20522;-75
2022/10/25 00:20:45;;;;;;;5.80;3.57;;;16.70;99.90;;;;;;5028186;28;20206;-81
2022/10/25 00:23:12;;;;;;;4.27;3.57;;;16.70;99.90;;;;;;4999375;28;20486;-81
2022/10/25 00:25:38;;;;;;;3.70;3.53;;;16.70;99.90;;;;;;5033325;28;20658;-81
2022/10/25 00:28:03;;;;;;;11.30;3.93;;;16.70;99.90;;;;;;5030222;28;20787;-81
2022/10/25 00:30:29;;;;;;;4.07;3.60;;;16.60;99.90;;;;;;5026067;28;20272;-81
2022/10/25 00:32:55;;;;;;;5.40;4.00;;;16.60;99.90;;;;;;4999842;28;20319;-81
2022/10/25 00:35:21;;;;;;;6.10;4.10;;;16.60;99.90;;;;;;4994188;28;20250;-80
2022/10/25 00:37:47;;;;;;;6.40;3.80;;;16.60;99.90;;;;;;4994788;28;20517;-80
2022/10/25 00:40:13;;;;;;;5.57;4.10;;;16.60;99.90;;;;;;5004166;28;20211;-81
2022/10/25 00:42:39;;;;;;;5.50;3.87;;;16.50;99.90;;;;;;5013440;28;20421;-81
2022/10/25 00:45:20;;;;;;;5.20;3.90;;;16.50;99.90;;;;;;5014326;28;20897;-81
2022/10/25 00:47:47;;;;;;;6.70;4.50;;;16.50;99.90;;;;;;5012761;28;20413;-79
2022/10/25 00:50:31;;;;;;;4.93;4.10;;;16.50;99.90;;;;;;5014661;28;20425;-81
2022/10/25 00:53:06;;;;;;;4.50;4.10;;;16.50;99.90;;;;;;5013235;28;20398;-81
2022/10/25 00:55:33;;;;;;;4.80;3.60;;;16.50;99.90;;;;;;5013101;28;20456;-81
2022/10/25 00:58:08;;;;;;;5.10;4.07;;;16.50;99.90;;;;;;5013786;28;20456;-79
2022/10/25 01:00:35;;;;;;;4.63;4.23;;;16.50;99.90;;;;;;5027182;28;20460;-80
2022/10/25 01:03:01;;;;;;;5.30;4.23;;;16.50;99.90;;;;;;4997215;28;20415;-80
2022/10/25 01:05:26;;;;;;;7.67;4.30;;;16.50;99.90;;;;;;4993524;28;20415;-80
2022/10/25 01:07:53;;;;;;;4.53;4.13;;;16.50;99.90;;;;;;4994045;28;20874;-80
2022/10/25 01:10:19;;;;;;;3.87;3.57;;;16.50;99.90;;;;;;5019397;28;20642;-80
2022/10/25 01:12:45;;;;;;;3.90;3.60;;;16.50;99.90;;;;;;5032646;28;20405;-81
2022/10/25 01:15:11;;;;;;;3.50;3.30;;;16.50;99.90;;;;;;5033312;28;20507;-80
2022/10/25 01:17:48;;;;;;;3.93;3.43;;;16.50;99.90;;;;;;5032606;28;20420;-80
2022/10/25 01:20:58;;;;;;;4.10;3.43;;;16.50;99.90;;;;;;5026903;28;20448;-81
2022/10/25 01:23:45;;;;;;;4.37;3.97;;;16.40;99.90;;;;;;5032669;28;20411;-80
2022/10/25 01:26:30;;;;;;;6.43;4.90;;;16.40;99.90;;;;;;5033103;28;20444;-80
2022/10/25 01:29:09;;;;;;;4.57;4.13;;;16.40;99.90;;;;;;5026937;28;20401;-80
2022/10/25 01:32:08;;;;;;;7.93;4.07;;;16.40;99.90;;;;;;5019402;28;20496;-80
2022/10/25 01:34:50;;;;;;;5.80;4.30;;;16.40;99.90;;;;;;4990642;28;20806;-79
2022/10/25 01:38:01;;;;;;;4.20;3.90;;;16.40;99.90;;;;;;4993578;28;20408;-79
2022/10/25 01:40:55;;;;;;;3.93;3.63;;;16.50;99.90;;;;;;5008023;28;20456;-81
2022/10/25 01:43:42;;;;;;;4.20;3.90;;;16.40;99.90;;;;;;5013201;28;20413;-82
2022/10/25 01:46:22;;;;;;;3.70;3.40;;;16.40;99.90;;;;;;5013024;28;20417;-81
2022/10/25 01:49:10;;;;;;;4.43;4.03;;;16.50;99.90;;;;;;5012537;28;20947;-81
2022/10/25 01:51:37;;;;;;;5.40;3.60;;;16.50;99.90;;;;;;5011409;28;20750;-81
2022/10/25 01:54:17;;;;;;;5.30;3.90;;;16.50;99.90;;;;;;4996582;28;20427;-81
2022/10/25 01:56:58;;;;;;;4.80;3.40;;;16.50;99.90;;;;;;4992829;28;21010;-81
2022/10/25 02:00:01;;;;;;;3.90;3.60;;;16.50;99.90;;;;;;4992719;28;20898;-75
2022/10/25 02:02:34;;;;;;;3.87;3.57;;;16.50;99.90;;;;;;4992973;28;20464;-81
2022/10/25 02:05:20;;;;;;;3.87;3.50;;;16.60;99.90;;;;;;4995590;28;20422;-79
2022/10/25 02:07:51;;;;;;;4.33;3.50;;;16.50;99.90;;;;;;5000398;28;20805;-81
2022/10/25 02:10:47;;;;;;;5.03;3.80;;;16.50;99.90;;;;;;5003593;28;20402;-81
2022/10/25 02:13:27;;;;;;;3.93;3.63;;;16.50;99.90;;;;;;5004098;28;20459;-82
2022/10/25 02:16:01;;;;;;;5.13;4.50;;;16.50;99.90;;;;;;5012647;28;20430;-82
2022/10/25 02:18:30;;;;;;;4.23;3.80;;;16.60;99.90;;;;;;5012125;28;20829;-81
2022/10/25 02:20:57;;;;;;;4.20;3.27;;;16.60;99.90;;;;;;5012388;28;20940;-82
2022/10/25 02:23:25;;;;;;;6.60;3.80;;;16.60;99.90;;;;;;5012780;28;20421;-81
2022/10/25 02:25:51;;;;;;;4.10;3.50;;;16.60;99.90;;;;;;5011481;28;20767;-82
2022/10/25 02:28:19;;;;;;;3.77;3.50;;;16.60;99.90;;;;;;5012617;28;20813;-82
2022/10/25 02:30:45;;;;;;;4.20;3.80;;;16.60;99.90;;;;;;5011536;28;20469;-81
2022/10/25 02:33:11;;;;;;;6.50;3.83;;;16.60;99.90;;;;;;5012540;28;20869;-82
2022/10/25 02:35:37;;;;;;;3.83;3.60;;;16.60;99.90;;;;;;5012101;28;20230;-82
2022/10/25 02:38:03;;;;;;;4.47;4.00;;;16.70;99.90;;;;;;4977905;28;20426;-82
2022/10/25 02:40:29;;;;;;;6.07;3.57;;;16.70;99.90;;;;;;5011899;28;20457;-82
2022/10/25 02:46:54;;;;;;;4.10;3.70;;;16.60;99.90;;;;;;5012253;28;20393;-81
2022/10/25 02:49:20;;;;;;;4.73;4.27;;;16.60;99.90;;;;;;5012603;28;20489;-81
2022/10/25 02:51:46;;;;;;;5.70;3.63;;;16.60;99.90;;;;;;5010564;28;20518;-81
2022/10/25 02:54:11;;;;;;;4.50;4.13;;;16.60;99.90;;;;;;5012096;28;20179;-81
2022/10/25 02:56:37;;;;;;;4.10;3.80;;;16.70;99.90;;;;;;5011872;28;20269;-80
2022/10/25 02:59:03;;;;;;;5.80;3.97;;;16.70;99.90;;;;;;5012224;28;20199;-81
2022/10/25 03:01:29;;;;;;;3.50;3.20;;;16.70;99.90;;;;;;5011430;28;20470;-81
2022/10/25 03:03:54;;;;;;;5.63;3.97;;;16.80;99.90;;;;;;5016009;28;20181;-81
2022/10/25 03:06:20;;;;;;;5.10;3.50;;;16.80;99.90;;;;;;5015937;28;20617;-80
2022/10/25 03:08:46;;;;;;;3.70;3.37;;;16.80;99.90;;;;;;5015349;28;20428;-77
2022/10/25 03:11:12;;;;;;;4.20;3.80;;;16.80;99.90;;;;;;5015719;28;20194;-76
2022/10/25 03:13:38;;;;;;;3.83;3.57;;;16.80;99.90;;;;;;5015183;28;20237;-75
2022/10/25 03:16:04;;;;;;;4.27;3.93;;;16.70;99.90;;;;;;5016023;28;20429;-76
2022/10/25 03:18:30;;;;;;;4.37;3.43;;;16.80;99.90;;;;;;5014817;28;20175;-75
2022/10/25 03:21:01;;;;;;;4.97;4.60;;;16.70;99.90;;;;;;5015393;28;20599;-76
2022/10/25 03:23:27;;;;;;;5.50;4.10;;;16.80;99.90;;;;;;5015740;28;20166;-76
2022/10/25 03:25:54;;;;;;;4.30;3.87;;;16.80;99.90;;;;;;5015538;28;20412;-76
2022/10/25 03:28:20;;;;;;;6.67;3.93;;;16.70;99.90;;;;;;5014076;28;20817;-76
2022/10/25 03:30:46;;;;;;;4.20;3.67;;;16.70;99.90;;;;;;5013367;28;20480;-76
2022/10/25 03:33:12;;;;;;;6.87;4.00;;;16.70;99.90;;;;;;5013874;28;20413;-76
2022/10/25 03:35:38;;;;;;;4.23;3.77;;;16.70;99.90;;;;;;5014790;28;20866;-76
2022/10/25 03:38:03;;;;;;;5.57;3.87;;;16.70;99.90;;;;;;5014982;28;20418;-76
2022/10/25 03:40:30;;;;;;;4.30;4.00;;;16.70;99.90;;;;;;5014550;28;20206;-76
2022/10/25 03:42:55;;;;;;;7.77;5.33;;;16.70;99.90;;;;;;5013809;28;20189;-76
2022/10/25 03:45:21;;;;;;;4.20;3.90;;;16.80;99.90;;;;;;5015194;28;20507;-76
2022/10/25 03:47:47;;;;;;;4.33;3.90;;;16.70;99.90;;;;;;5014182;28;20171;-76
2022/10/25 03:50:13;;;;;;;8.30;4.37;;;16.70;99.90;;;;;;5015242;28;20213;-76
2022/10/25 03:52:39;;;;;;;5.80;3.70;;;16.70;99.90;;;;;;5014456;28;20182;-76
2022/10/25 03:55:05;;;;;;;4.70;4.40;;;16.70;99.90;;;;;;5014952;28;20175;-76
2022/10/25 03:57:31;;;;;;;4.93;4.50;;;16.70;99.90;;;;;;5014416;28;20430;-75
2022/10/25 03:59:58;;;;;;;4.60;3.17;;;16.70;99.90;;;;;;5015051;28;20421;-76
2022/10/25 04:02:25;;;;;;;6.63;3.07;;;16.70;99.90;;;;;;5014602;28;20496;-77
2022/10/25 04:04:51;;;;;;;3.53;3.00;;;16.80;99.90;;;;;;5014265;28;20413;-76
2022/10/25 04:07:18;;;;;;;2.77;2.57;;;16.70;99.90;;;;;;5014822;28;20762;-76
2022/10/25 04:09:44;;;;;;;5.83;3.00;;;16.70;99.90;;;;;;5014225;28;20409;-76
2022/10/25 04:12:09;;;;;;;5.40;5.10;;;16.70;99.90;;;;;;5014392;28;20991;-76
2022/10/25 04:14:35;;;;;;;6.60;4.50;;;16.70;99.90;;;;;;5013003;28;20501;-76
2022/10/25 04:17:01;;;;;;;4.97;3.87;;;16.70;99.90;;;;;;5015003;28;20182;-76
2022/10/25 04:19:26;;;;;;;6.77;6.37;;;16.70;99.90;;;;;;5014679;28;20711;-76
2022/10/25 04:21:52;;;;;;;5.17;3.97;;;16.60;99.90;;;;;;5013820;28;20218;-76
2022/10/25 04:24:18;;;;;;;3.83;3.10;;;16.60;99.90;;;;;;5014534;28;20175;-76
2022/10/25 04:26:44;;;;;;;5.70;3.50;;;16.60;99.90;;;;;;5012595;28;20344;-77
2022/10/25 04:29:10;;;;;;;6.27;5.60;;;16.60;99.90;;;;;;5013147;28;20252;-76
2022/10/25 04:31:36;;;;;;;4.27;3.90;;;16.60;99.90;;;;;;5013515;28;20219;-76
2022/10/25 04:34:02;;;;;;;4.70;3.83;;;16.60;99.90;;;;;;5014235;28;20402;-76
2022/10/25 04:36:28;;;;;;;4.83;4.00;;;16.60;99.90;;;;;;5014282;28;20235;-76
2022/10/25 04:38:54;;;;;;;7.00;3.17;;;16.60;99.90;;;;;;5013884;28;20416;-76
2022/10/25 04:41:20;;;;;;;3.40;3.20;;;16.60;99.90;;;;;;5013755;28;20963;-76
2022/10/25 04:43:46;;;;;;;4.27;3.83;;;16.60;99.90;;;;;;5013445;28;20414;-77
2022/10/25 04:46:13;;;;;;;5.80;5.00;;;16.60;99.90;;;;;;5013981;28;20348;-76
2022/10/25 04:48:40;;;;;;;5.30;4.80;;;16.60;99.90;;;;;;5013358;28;20410;-76
2022/10/25 04:51:06;;;;;;;5.20;3.93;;;16.50;99.90;;;;;;5013694;28;20416;-76
2022/10/25 04:53:32;;;;;;;5.50;5.00;;;16.50;99.90;;;;;;5013940;28;20410;-76
2022/10/25 04:56:04;;;;;;;3.93;3.43;;;16.50;99.90;;;;;;5013814;28;20420;-76
2022/10/25 04:58:30;;;;;;;6.50;4.30;;;16.50;99.90;;;;;;5013617;28;20496;-76
2022/10/25 05:01:01;;;;;;;6.07;5.50;;;16.50;99.90;;;;;;5012949;28;20501;-76
2022/10/25 05:03:28;;;;;;;5.47;3.83;;;16.40;99.90;;;;;;5013848;28;20417;-76
2022/10/25 05:05:53;;;;;;;6.70;4.10;;;16.40;99.90;;;;;;5013039;28;20448;-77
2022/10/25 05:08:19;;;;;;;6.23;5.73;;;16.40;99.90;;;;;;5013766;28;20406;-76
2022/10/25 05:10:53;;;;;;;4.87;4.13;;;16.40;99.90;;;;;;5012786;28;20540;-76
2022/10/25 05:13:19;;;;;;;5.10;3.90;;;16.40;99.90;;;;;;5013345;28;20170;-77
2022/10/25 05:15:56;;;;;;;6.17;4.47;;;16.40;99.90;;;;;;5011761;28;20413;-76
2022/10/25 05:18:21;;;;;;;5.00;4.30;;;16.40;99.90;;;;;;5013270;28;20694;-76
2022/10/25 05:21:05;;;;;;;6.27;5.70;;;16.40;99.90;;;;;;5012780;28;20524;-76
2022/10/25 05:23:33;;;;;;;3.70;3.30;;;16.50;99.90;;;;;;5013499;28;20174;-76
2022/10/25 05:26:14;;;;;;;5.97;3.70;;;16.50;99.90;;;;;;5012640;28;20800;-76
2022/10/25 05:28:41;;;;;;;5.23;3.93;;;16.50;99.90;;;;;;5012511;28;20420;-76
2022/10/25 05:31:28;;;;;;;6.00;4.00;;;16.50;99.90;;;;;;5013229;28;20465;-76
2022/10/25 05:33:57;;;;;;;7.20;4.27;;;16.60;99.90;;;;;;5012761;28;20417;-76
2022/10/25 05:36:24;;;;;;;5.20;4.20;;;16.50;99.90;;;;;;5011862;28;20857;-76
2022/10/25 05:38:49;;;;;;;6.20;5.27;;;16.50;99.90;;;;;;5012589;28;20548;-76
2022/10/25 05:41:17;;;;;;;7.27;4.53;;;16.50;99.90;;;;;;5013099;28;20453;-76
2022/10/25 05:43:44;;;;;;;5.93;4.67;;;16.40;99.90;;;;;;5012556;28;20321;-76
2022/10/25 05:46:11;;;;;;;5.00;4.50;;;16.40;99.90;;;;;;5011943;28;20900;-77
2022/10/25 05:48:37;;;;;;;6.57;5.63;;;16.40;99.90;;;;;;5012268;28;20420;-75
2022/10/25 05:51:17;;;;;;;12.17;9.57;;;16.30;99.90;;;;;;4994289;28;20408;-77
2022/10/25 05:53:48;;;;;;;6.30;5.80;;;16.30;99.90;;;;;;5012472;28;20873;-77
2022/10/25 05:56:14;;;;;;;8.90;6.20;;;16.40;99.90;;;;;;5013171;28;20493;-77
2022/10/25 05:58:40;;;;;;;6.40;5.80;;;16.40;99.90;;;;;;5012341;28;20398;-76
2022/10/25 06:01:08;;;;;;;5.33;4.83;;;16.40;99.90;;;;;;5012606;28;20487;-77
2022/10/25 06:03:34;;;;;;;5.90;5.30;;;16.40;99.90;;;;;;5012645;28;20886;-77
2022/10/25 06:06:01;;;;;;;4.90;4.50;;;16.40;99.90;;;;;;4961448;28;20422;-76
2022/10/25 06:08:28;;;;;;;6.40;5.80;;;16.50;99.90;;;;;;5013152;28;20179;-77
2022/10/25 06:10:54;;;;;;;5.53;5.03;;;16.50;99.90;;;;;;5012257;28;20432;-76
2022/10/25 06:13:19;;;;;;;5.70;5.17;;;16.50;99.90;;;;;;5012867;28;20410;-77
2022/10/25 06:15:48;;;;;;;4.53;4.13;;;16.50;99.90;;;;;;5012056;28;20444;-76
2022/10/25 06:18:14;;;;;;;4.00;3.70;;;16.50;99.90;;;;;;5013096;28;20253;-76
2022/10/25 06:20:39;;;;;;;6.43;4.70;;;16.50;99.90;;;;;;5011938;28;20533;-76
2022/10/25 06:23:05;;;;;;;4.80;4.20;;;16.50;99.90;;;;;;5012667;28;20233;-76
2022/10/25 06:25:31;;;;;;;6.00;5.13;;;16.50;99.90;;;;;;5012668;28;20178;-77
2022/10/25 06:27:56;;;;;;;5.93;4.67;;;16.50;99.90;;;;;;5012318;28;20175;-76
2022/10/25 06:30:22;;;;;;;5.80;5.30;;;16.50;99.90;;;;;;5012464;28;20183;-77
2022/10/25 06:32:47;;;;;;;6.20;5.50;;;16.50;99.90;;;;;;5011654;28;20187;-76
2022/10/25 06:35:13;;;;;;;9.50;5.80;;;16.50;99.90;;;;;;5012607;28;20201;-77
2022/10/25 06:37:39;;;;;;;4.87;4.50;;;16.50;99.90;;;;;;5013591;28;20261;-75
2022/10/25 06:40:05;;;;;;;6.87;6.37;;;16.60;99.90;;;;;;5016326;28;20171;-76
2022/10/25 06:42:31;;;;;;;6.70;6.23;;;16.50;99.90;;;;;;5016114;28;20592;-77
2022/10/25 06:44:56;;;;;;;5.60;5.07;;;16.60;99.90;;;;;;5015717;28;20497;-77
2022/10/25 06:47:22;;;;;;;6.63;6.00;;;16.60;99.90;;;;;;5016333;28;20179;-77
2022/10/25 06:49:48;;;;;;;6.60;6.00;;;16.60;99.90;;;;;;5015727;28;20578;-77
2022/10/25 06:52:14;;;;;;;7.40;6.87;;;16.60;99.90;;;;;;5014685;28;20209;-77
2022/10/25 06:54:48;;;;;;;6.77;6.17;;;16.60;99.90;;;;;;4980918;28;20524;-76
2022/10/25 06:57:14;;;;;;;5.70;5.20;;;16.60;99.90;;;;;;5014784;28;20432;-77
2022/10/25 06:59:39;;;;;;;6.80;5.70;;;16.60;99.90;;;;;;5016127;28;20565;-77
2022/10/25 07:02:05;;;;;;;4.97;4.67;;;16.60;99.90;;;;;;5015961;28;20219;-77
2022/10/25 07:04:31;;;;;;;6.50;5.93;;;16.60;99.90;;;;;;5016018;28;20410;-77
2022/10/25 07:06:58;;;;;;;7.23;6.53;;;16.60;99.90;;;;;;5014140;28;20429;-77
2022/10/25 07:09:26;;;;;;;6.30;5.90;;;16.60;99.90;;;;;;5016117;28;20182;-77
2022/10/25 07:11:52;;;;;;;6.13;5.63;;;16.60;99.90;;;;;;5015227;28;20424;-76
2022/10/25 07:14:17;;;;;;;10.73;6.47;;;16.60;99.90;;;;;;5015989;28;20410;-77
2022/10/25 07:16:43;;;;;;;6.33;5.73;;;16.60;99.90;;;;;;5015013;28;20206;-76
2022/10/25 07:19:09;;;;;;;6.50;5.90;;;16.60;99.90;;;;;;5015713;28;20182;-76
2022/10/25 07:21:35;;;;;;;5.43;4.93;;;16.70;99.90;;;;;;5015550;28;20280;-77
2022/10/25 07:24:01;;;;;;;6.10;5.50;;;16.60;99.90;;;;;;5014979;28;20707;-76
2022/10/25 07:26:32;;;;;;;5.80;5.40;;;16.60;99.90;;;;;;5015254;28;20265;-77
2022/10/25 07:28:59;;;;;;;6.83;5.50;;;16.70;99.90;;;;;;5015016;28;20164;-76
2022/10/25 07:31:31;;;;;;;6.50;5.83;;;16.60;99.90;;;;;;5015047;28;21021;-77
2022/10/25 07:33:59;;;;;;;6.83;6.33;;;16.60;99.90;;;;;;5014564;28;20398;-76
2022/10/25 07:36:25;;;;;;;6.67;6.00;;;16.60;99.90;;;;;;5015173;28;20406;-77
2022/10/25 07:38:51;;;;;;;6.13;5.70;;;16.60;99.90;;;;;;5014576;28;20416;-76
2022/10/25 07:41:16;;;;;;;5.47;5.00;;;16.50;99.90;;;;;;5015300;28;20457;-77
2022/10/25 07:43:42;;;;;;;7.93;5.40;;;16.60;99.90;;;;;;5015221;28;20190;-77
2022/10/25 07:46:08;;;;;;;5.80;5.20;;;16.60;99.90;;;;;;5011880;28;20186;-76
2022/10/25 07:48:34;;;;;;;7.70;5.63;;;16.60;99.90;;;;;;5002096;28;20232;-77
2022/10/25 07:51:04;;;;;;;5.10;4.70;;;16.50;99.90;;;;;;5004485;28;20246;-77
2022/10/25 07:53:30;;;;;;;6.33;5.20;;;16.50;99.90;;;;;;5003774;28;20418;-77
2022/10/25 07:55:56;;;;;;;7.50;4.53;;;16.40;99.90;;;;;;5004222;28;20503;-76
2022/10/25 07:58:22;;;;;;;6.30;5.67;;;16.40;99.90;;;;;;5005434;28;20183;-76
2022/10/25 08:00:48;;;;;;;6.73;5.83;;;16.50;99.90;;;;;;5002820;28;20203;-76
2022/10/25 08:03:15;;;;;;;6.07;5.47;;;16.50;99.90;;;;;;5003960;28;20177;-76
2022/10/25 08:05:45;;;;;;;4.70;4.30;;;16.60;99.90;;;;;;5005319;28;20417;-77
2022/10/25 08:08:12;;;;;;;6.77;6.10;;;16.70;99.90;;;;;;5005971;28;20768;-74
2022/10/25 08:10:39;;;;;;;7.07;6.47;;;16.80;99.90;;;;;;5002508;28;20455;-74
2022/10/25 08:13:05;;;;;;;7.97;7.37;;;16.80;99.90;;;;;;5007176;28;20438;-74
2022/10/25 08:15:31;;;;;;;7.00;6.33;;;16.90;99.90;;;;;;5007466;28;20482;-74
2022/10/25 08:17:58;;;;;;;9.43;7.53;;;17.00;99.90;;;;;;4999661;28;20615;-74
2022/10/25 08:20:24;;;;;;;8.07;6.77;;;17.10;99.90;;;;;;5006706;28;20238;-74
2022/10/25 08:22:50;;;;;;;6.80;6.40;;;17.10;99.90;;;;;;5007033;28;20519;-75
2022/10/25 08:25:15;;;;;;;9.50;6.63;;;17.20;99.90;;;;;;5002484;28;20430;-77
2022/10/25 08:27:41;;;;;;;5.50;5.00;;;17.20;99.90;;;;;;5005890;28;20175;-74
2022/10/25 08:30:07;;;;;;;5.33;4.87;;;17.30;99.90;;;;;;5002280;28;20213;-75
2022/10/25 08:32:36;;;;;;;5.07;4.63;;;17.30;99.90;;;;;;5005478;28;20214;-75
2022/10/25 08:35:02;;;;;;;5.43;4.50;;;17.40;99.90;;;;;;5024632;28;20422;-75
2022/10/25 08:37:28;;;;;;;4.80;4.20;;;17.40;99.90;;;;;;5004621;28;20406;-75
2022/10/25 08:39:54;;;;;;;5.67;5.07;;;17.40;99.90;;;;;;5001984;28;20426;-75
2022/10/25 08:42:37;;;;;;;6.80;4.80;;;17.50;99.90;;;;;;5007436;28;20233;-75
2022/10/25 08:45:27;;;;;;;6.70;4.70;;;17.50;99.90;;;;;;5004105;28;20674;-75
2022/10/25 08:47:55;;;;;;;5.03;4.53;;;17.50;99.90;;;;;;5002123;28;20446;-75
2022/10/25 08:50:44;;;;;;;4.83;4.17;;;17.60;99.90;;;;;;5004425;28;20476;-75
2022/10/25 08:53:20;;;;;;;8.17;5.30;;;17.60;99.90;;;;;;5002031;28;20414;-75
2022/10/25 08:55:47;;;;;;;4.63;4.30;;;17.70;99.90;;;;;;5001145;28;20461;-76
2022/10/25 08:58:33;;;;;;;5.13;4.60;;;17.80;99.90;;;;;;5003093;28;20444;-76
2022/10/25 09:01:09;;;;;;;4.70;4.30;;;18.00;99.90;;;;;;5002281;28;20475;-75
2022/10/25 09:03:35;;;;;;;4.70;4.40;;;18.20;99.90;;;;;;5000831;28;20413;-76
2022/10/25 09:06:38;;;;;;;5.30;5.00;;;18.30;99.90;;;;;;5002308;28;20505;-76
2022/10/25 09:09:12;;;;;;;4.87;4.33;;;18.40;99.90;;;;;;5003635;28;20410;-76
2022/10/25 09:11:40;;;;;;;4.90;4.60;;;18.40;99.90;;;;;;5003060;28;20415;-76
2022/10/25 09:14:30;;;;;;;4.90;4.40;;;18.50;99.90;;;;;;5004273;28;20521;-76
2022/10/25 09:17:15;;;;;;;4.93;4.60;;;18.70;99.90;;;;;;5007801;28;20425;-76
2022/10/25 09:19:53;;;;;;;8.00;5.27;;;18.90;99.90;;;;;;5009357;28;20768;-75
2022/10/25 09:22:30;;;;;;;4.87;4.57;;;19.10;99.90;;;;;;5002753;28;20814;-75
2022/10/25 09:25:05;;;;;;;5.23;4.83;;;19.30;99.90;;;;;;5006915;28;20434;-75
2022/10/25 09:27:38;;;;;;;5.00;4.70;;;19.50;99.90;;;;;;4997052;28;20508;-75
2022/10/25 09:30:08;;;;;;;4.70;4.27;;;19.50;99.90;;;;;;5010188;28;20925;-75
2022/10/25 09:32:40;;;;;;;5.60;5.10;;;19.50;99.90;;;;;;5003657;28;20465;-75
2022/10/25 09:35:16;;;;;;;4.90;4.53;;;19.50;99.90;;;;;;4991703;28;20423;-75
2022/10/25 09:37:55;;;;;;;4.40;4.10;;;19.60;99.90;;;;;;4994343;28;20415;-76
2022/10/25 09:40:31;;;;;;;4.37;4.10;;;19.70;99.90;;;;;;4993558;28;20461;-76
2022/10/25 09:43:03;;;;;;;4.40;4.20;;;19.80;99.90;;;;;;4993015;28;20418;-75
2022/10/25 09:45:42;;;;;;;5.90;5.50;;;19.70;99.90;;;;;;4996409;28;20414;-75
2022/10/25 09:48:28;;;;;;;5.17;4.67;;;19.70;99.90;;;;;;4992985;28;20427;-75
2022/10/25 09:51:29;;;;;;;5.23;4.90;;;19.70;99.90;;;;;;4992626;28;20437;-76
2022/10/25 09:53:55;;;;;;;5.27;4.87;;;19.60;99.90;;;;;;4999723;28;20422;-76
2022/10/25 09:56:21;;;;;;;5.10;4.17;;;19.60;99.90;;;;;;5002410;28;20406;-76
2022/10/25 09:58:47;;;;;;;4.77;4.40;;;19.50;99.90;;;;;;5002640;28;20560;-75
2022/10/25 10:01:18;;;;;;;4.53;4.23;;;19.50;99.90;;;;;;5001560;28;20306;-75
2022/10/25 10:03:44;;;;;;;5.83;5.33;;;19.40;99.90;;;;;;5001905;28;20406;-76
2022/10/25 10:06:12;;;;;;;6.20;5.60;;;19.30;99.90;;;;;;5011398;28;20414;-76
2022/10/25 10:08:42;;;;;;;5.63;5.23;;;19.30;99.90;;;;;;5010007;28;20449;-74
2022/10/25 10:11:15;;;;;;;5.10;4.77;;;19.30;99.90;;;;;;5010872;28;20448;-76
2022/10/25 10:13:48;;;;;;;4.43;4.07;;;19.20;99.90;;;;;;4939143;29;20776;-74
2022/10/25 10:16:16;;;;;;;6.37;5.90;;;19.10;99.90;;;;;;4946899;29;20422;-74
2022/10/25 10:18:45;;;;;;;5.20;4.70;;;19.20;99.90;;;;;;4936990;29;20422;-74
2022/10/25 10:21:11;;;;;;;4.37;4.07;;;19.30;99.90;;;;;;4943745;29;20464;-75
2022/10/25 10:23:42;;;;;;;4.77;4.40;;;19.40;99.90;;;;;;4955173;29;20644;-75
2022/10/25 10:26:22;;;;;;;5.17;4.80;;;19.40;99.90;;;;;;4938079;29;20399;-75
2022/10/25 10:28:51;;;;;;;4.87;4.57;;;19.40;99.90;;;;;;4953196;28;20822;-76
2022/10/25 10:31:18;;;;;;;4.53;4.10;;;19.60;99.90;;;;;;4926359;29;20513;-75
2022/10/25 10:33:49;;;;;;;4.20;4.00;;;19.60;99.90;;;;;;4945438;29;20492;-76
2022/10/25 10:36:24;;;;;;;4.03;3.80;;;19.70;99.90;;;;;;4955691;29;20936;-76
2022/10/25 10:38:50;;;;;;;4.13;3.73;;;19.70;99.90;;;;;;4960814;28;20431;-76
2022/10/25 10:41:27;;;;;;;7.67;4.50;;;19.60;99.90;;;;;;4974862;28;20470;-76
2022/10/25 10:44:13;;;;;;;4.73;4.40;;;19.50;99.90;;;;;;4978583;28;20521;-76
2022/10/25 10:46:46;;;;;;;4.80;4.60;;;19.40;99.90;;;;;;4999163;28;20410;-75
2022/10/25 10:49:14;;;;;;;5.43;4.60;;;19.30;99.90;;;;;;5013744;28;20448;-75
2022/10/25 10:51:43;;;;;;;6.67;4.90;;;19.20;99.90;;;;;;5016439;28;20414;-76
2022/10/25 10:54:22;;;;;;;4.33;4.03;;;19.10;99.90;;;;;;5014301;28;20824;-76
2022/10/25 10:56:56;;;;;;;4.80;4.33;;;19.00;99.90;;;;;;5013727;28;20492;-75
2022/10/25 10:59:29;;;;;;;4.70;4.37;;;19.00;99.90;;;;;;5009269;28;20606;-75
2022/10/25 11:01:55;;;;;;;5.63;4.00;;;18.90;99.90;;;;;;5012853;28;20481;-75
2022/10/25 11:04:21;;;;;;;5.73;5.30;;;19.00;99.90;;;;;;5013488;28;20524;-73
2022/10/25 11:06:46;;;;;;;6.53;5.97;;;19.10;99.90;;;;;;5013757;28;20275;-75
2022/10/25 11:09:22;;;;;;;5.67;5.17;;;19.10;99.90;;;;;;4998573;28;20183;-74
2022/10/25 11:12:13;;;;;;;6.40;5.90;;;19.30;99.90;;;;;;4993921;28;20193;-78
2022/10/25 11:14:40;;;;;;;5.97;5.57;;;19.70;99.90;;;;;;4989644;28;20915;-76
2022/10/25 11:17:36;;;;;;;7.57;6.97;;;20.00;99.90;;;;;;4976944;28;20415;-76
2022/10/25 11:20:11;;;;;;;4.63;4.20;;;20.40;99.90;;;;;;5000407;28;20418;-76
2022/10/25 11:22:45;;;;;;;4.07;3.87;;;20.60;99.30;;;;;;4995817;28;20851;-76
2022/10/25 11:25:22;;;;;;;5.70;5.10;;;20.90;98.90;;;;;;5012635;28;20417;-76
2022/10/25 11:28:27;;;;;;;5.60;5.23;;;21.10;97.60;;;;;;5014088;28;20431;-78
2022/10/25 11:31:09;;;;;;;5.20;4.90;;;21.40;97.50;;;;;;4982579;28;20465;-80
2022/10/25 11:34:10;;;;;;;4.80;4.60;;;21.70;96.90;;;;;;5020736;28;20517;-83
2022/10/25 11:36:47;;;;;;;5.10;4.70;;;21.80;97.00;;;;;;5005974;28;20843;-81
2022/10/25 11:39:21;;;;;;;5.27;4.77;;;21.90;97.20;;;;;;5009952;28;20414;-79
2022/10/25 11:41:54;;;;;;;4.33;4.13;;;21.90;97.60;;;;;;5002278;28;20445;-78
2022/10/25 11:44:35;;;;;;;5.43;4.10;;;21.90;98.10;;;;;;5008405;28;20417;-78
2022/10/25 11:47:18;;;;;;;3.70;3.20;;;21.90;97.10;;;;;;5005379;28;20817;-82
2022/10/25 11:49:54;;;;;;;5.53;3.93;;;21.90;96.30;;;;;;5008059;28;20461;-83
2022/10/25 11:52:48;;;;;;;4.90;4.40;;;21.80;96.80;;;;;;5005881;28;20430;-78
2022/10/25 11:55:30;;;;;;;5.30;3.70;;;21.90;99.90;;;;;;5002750;28;20952;-82
2022/10/25 11:57:58;;;;;;;3.63;3.33;;;21.90;97.00;;;;;;5002509;28;20481;-84
2022/10/25 12:00:39;;;;;;;3.47;3.20;;;21.70;94.70;;;;;;5006945;28;20434;-82
2022/10/25 12:03:26;;;;;;;4.20;3.90;;;21.60;95.70;;;;;;5005902;28;20434;-83
2022/10/25 12:05:59;;;;;;;3.10;2.73;;;21.50;98.40;;;;;;5007818;28;20827;-78
2022/10/25 12:08:32;;;;;;;3.87;3.60;;;21.50;95.40;;;;;;5024024;28;21296;-83
2022/10/25 12:11:09;;;;;;;4.13;3.83;;;21.50;96.00;;;;;;4994483;28;20403;-83
2022/10/25 12:13:42;;;;;;;3.57;3.33;;;21.40;95.20;;;;;;5009118;28;20405;-83
2022/10/25 12:16:17;;;;;;;3.70;3.40;;;21.40;96.10;;;;;;4994268;28;20423;-82
2022/10/25 12:18:46;;;;;;;3.77;3.47;;;21.30;95.30;;;;;;4999971;28;20810;-83
2022/10/25 12:21:21;;;;;;;3.97;3.63;;;21.30;97.20;;;;;;5004922;28;20536;-83
2022/10/25 12:23:50;;;;;;;4.80;4.40;;;21.30;97.70;;;;;;5004983;28;20465;-83
2022/10/25 12:26:37;;;;;;;4.13;3.80;;;21.30;99.90;;;;;;5013456;28;20406;-83
2022/10/25 12:29:11;;;;;;;3.33;3.13;;;21.20;98.50;;;;;;5010307;28;20437;-78
2022/10/25 12:32:01;;;;;;;4.10;3.83;;;21.20;96.50;;;;;;5006876;28;20476;-77
2022/10/25 12:34:48;;;;;;;4.33;3.93;;;21.10;95.30;;;;;;5005556;28;20450;-77
2022/10/25 12:37:38;;;;;;;4.13;3.83;;;21.00;95.40;;;;;;5008915;28;20430;-77
2022/10/25 12:40:06;;;;;;;4.50;4.20;;;20.80;95.40;;;;;;5005788;28;20938;-77
2022/10/25 12:43:04;;;;;;;4.80;4.40;;;20.70;95.30;;;;;;5008624;28;20496;-76
2022/10/25 12:45:39;;;;;;;5.00;4.53;;;20.50;95.70;;;;;;5001896;28;20448;-75
2022/10/25 12:48:33;;;;;;;5.30;4.50;;;20.30;96.20;;;;;;5004419;28;20414;-78
2022/10/25 12:51:13;;;;;;;7.13;4.17;;;20.20;97.00;;;;;;5026551;28;20422;-73
2022/10/25 12:54:17;;;;;;;4.97;4.60;;;20.20;97.30;;;;;;4997764;28;20513;-75
2022/10/25 12:57:13;;;;;;;5.03;4.53;;;20.10;97.30;;;;;;5007931;28;20421;-73
2022/10/25 12:59:59;;;;;;;5.63;5.07;;;20.00;97.70;;;;;;5003815;28;20439;-73
2022/10/25 13:02:47;;;;;;;7.23;5.37;;;19.90;98.20;;;;;;5002463;28;20478;-73
2022/10/25 13:05:34;;;;;;;5.07;4.57;;;19.90;98.60;;;;;;5004833;28;20972;-73
2022/10/25 13:08:03;;;;;;;5.50;5.20;;;19.70;97.80;;;;;;5006655;28;20437;-68
2022/10/25 13:10:34;;;;;;;5.33;4.93;;;19.60;98.90;;;;;;5026270;28;20409;-74
2022/10/25 13:13:04;;;;;;;6.20;5.70;;;19.60;99.50;;;;;;5008329;28;20501;-73